Time;durP1;ratioP1;P1;durP2;ratioP2;P2;SDS_P1;SDS_P2;PMS_P1;PMS_P2;Temp;Humidity;BMP_temperature;BMP_pressure;BME280_temperature;BME280_humidity;BME280_pressure;Samples;Min_cycle;Max_cycle;Signal;HPM_P1;HPM_P2
2021/04/25 00:00:34;;;;;;;4.9;1.5;;;;;;;8.08;62.83887;939.9182;;;;
2021/04/25 00:03:00;;;;;;;2.2;1.6;;;;;;;8.03;62.8877;939.8402;;;;
2021/04/25 00:05:25;;;;;;;2;1.1;;;;;;;7.94;62.99805;939.8038;;;;
2021/04/25 00:07:51;;;;;;;2.2;1.2;;;;;;;7.79;63.47559;939.7861;;;;
2021/04/25 00:10:18;;;;;;;2.5;0.9;;;;;;;7.69;63.76563;939.7852;;;;
2021/04/25 00:12:48;;;;;;;1;0.7;;;;;;;7.62;63.88281;939.7339;;;;
2021/04/25 00:15:32;;;;;;;3.3;1;;;;;;;7.51;64.45508;939.7699;;;;
2021/04/25 00:18:01;;;;;;;1.6;1;;;;;;;7.44;64.55762;939.7737;;;;
2021/04/25 00:20:26;;;;;;;1.9;1.1;;;;;;;7.41;64.76855;939.6844;;;;
2021/04/25 00:22:55;;;;;;;1.4;1.3;;;;;;;7.38;64.71875;939.6905;;;;
2021/04/25 00:25:20;;;;;;;2.5;1.2;;;;;;;7.4;64.63086;939.6386;;;;
2021/04/25 00:27:47;;;;;;;1.4;1.1;;;;;;;7.37;64.57031;939.5233;;;;
2021/04/25 00:30:12;;;;;;;1.8;1.3;;;;;;;7.27;65.14453;939.5342;;;;
2021/04/25 00:32:38;;;;;;;2.2;1.1;;;;;;;7.28;65.30371;939.5488;;;;
2021/04/25 00:35:05;;;;;;;3.4;1.5;;;;;;;7.39;64.7998;939.5156;;;;
2021/04/25 00:37:31;;;;;;;2.1;1.1;;;;;;;7.44;64.55762;939.4037;;;;
2021/04/25 00:39:58;;;;;;;2.1;1.3;;;;;;;7.53;64.11719;939.3995;;;;
2021/04/25 00:42:23;;;;;;;2.2;1.4;;;;;;;7.59;63.88867;939.3675;;;;
2021/04/25 00:44:50;;;;;;;1.2;0.9;;;;;;;7.61;63.55078;939.3688;;;;
2021/04/25 00:47:15;;;;;;;2.5;0.8;;;;;;;7.58;63.45605;939.3539;;;;
2021/04/25 00:49:42;;;;;;;1;0.8;;;;;;;7.54;63.8252;939.2809;;;;
2021/04/25 00:52:08;;;;;;;1.4;0.9;;;;;;;7.46;63.77734;939.317;;;;
2021/04/25 00:54:38;;;;;;;1;0.9;;;;;;;7.31;64.43652;939.2841;;;;
2021/04/25 00:57:20;;;;;;;2.8;1.3;;;;;;;7.2;64.62207;939.2827;;;;
2021/04/25 00:59:51;;;;;;;1.5;1.1;;;;;;;7.24;64.5957;939.3458;;;;
2021/04/25 01:02:22;;;;;;;3;1.2;;;;;;;7.27;64.4873;939.2896;;;;
2021/04/25 01:05:10;;;;;;;1.1;1;;;;;;;7.26;64.55371;939.2687;;;;
2021/04/25 01:07:35;;;;;;;1.1;0.8;;;;;;;7.3;64.41211;939.2553;;;;
2021/04/25 01:10:00;;;;;;;1.4;1;;;;;;;7.27;64.55566;939.132;;;;
2021/04/25 01:12:29;;;;;;;3.7;1.3;;;;;;;7.12;65.01953;939.2177;;;;
2021/04/25 01:14:58;;;;;;;4.2;1.5;;;;;;;6.95;65.74219;939.2584;;;;
2021/04/25 01:17:29;;;;;;;1.7;1.3;;;;;;;6.95;65.70508;939.2432;;;;
2021/04/25 01:19:57;;;;;;;1.6;1;;;;;;;7.06;65.55469;939.1403;;;;
2021/04/25 01:22:24;;;;;;;1.9;1.2;;;;;;;7.05;65.6543;939.2032;;;;
2021/04/25 01:24:55;;;;;;;2.5;1.1;;;;;;;7.03;65.73047;939.2092;;;;
2021/04/25 01:27:27;;;;;;;1.4;1.3;;;;;;;7.05;65.8125;939.2294;;;;
2021/04/25 01:29:58;;;;;;;2.6;1.5;;;;;;;7.05;65.74414;939.2563;;;;
2021/04/25 01:32:28;;;;;;;3;1.7;;;;;;;6.98;66.03906;939.2162;;;;
2021/04/25 01:34:56;;;;;;;3;1.3;;;;;;;6.98;66.15234;939.236;;;;
2021/04/25 01:37:22;;;;;;;4.1;1.2;;;;;;;6.98;66.24414;939.1959;;;;
2021/04/25 01:39:52;;;;;;;1;0.8;;;;;;;6.91;66.3125;939.1322;;;;
2021/04/25 01:42:22;;;;;;;2.9;1;;;;;;;6.85;66.77832;939.1845;;;;
2021/04/25 01:44:47;;;;;;;1.9;1.2;;;;;;;6.89;66.80664;939.1847;;;;
2021/04/25 01:47:16;;;;;;;1.7;1.2;;;;;;;6.93;66.60938;939.1708;;;;
2021/04/25 01:49:41;;;;;;;1.5;1.2;;;;;;;7.01;66.41895;939.2182;;;;
2021/04/25 01:52:10;;;;;;;1.9;1.1;;;;;;;7.09;66.20313;939.1685;;;;
2021/04/25 01:54:35;;;;;;;1.3;1.2;;;;;;;7.17;66.08105;939.1555;;;;
2021/04/25 01:57:04;;;;;;;1.9;1.3;;;;;;;7.2;65.80176;939.2004;;;;
2021/04/25 01:59:28;;;;;;;1.6;0.9;;;;;;;7.21;65.54199;939.1214;;;;
2021/04/25 02:01:54;;;;;;;1.6;0.9;;;;;;;7.2;65.83594;939.248;;;;
2021/04/25 02:04:19;;;;;;;2.5;1.6;;;;;;;7.14;66.16602;939.2148;;;;
2021/04/25 02:06:47;;;;;;;1.5;1.1;;;;;;;7.24;66.16016;939.2255;;;;
2021/04/25 02:09:12;;;;;;;1.2;1.1;;;;;;;7.15;67.3584;939.239;;;;
2021/04/25 02:11:41;;;;;;;5.8;1.4;;;;;;;7.21;66.73145;939.3052;;;;
2021/04/25 02:14:15;;;;;;;3;1.4;;;;;;;7.27;65.9375;939.2269;;;;
2021/04/25 02:17:05;;;;;;;2.9;1.2;;;;;;;7.26;66.11816;939.1301;;;;
2021/04/25 02:19:41;;;;;;;1.1;1;;;;;;;7.29;65.77051;939.1078;;;;
2021/04/25 02:22:12;;;;;;;1.6;1.3;;;;;;;7.24;66;939.1834;;;;
2021/04/25 02:24:37;;;;;;;7.7;1.6;;;;;;;7.18;66.03613;939.2095;;;;
2021/04/25 02:27:05;;;;;;;1.5;0.9;;;;;;;7.26;65.83301;939.1086;;;;
2021/04/25 02:29:38;;;;;;;1.4;0.8;;;;;;;7.32;65.61621;939.1822;;;;
2021/04/25 02:32:05;;;;;;;2.3;1.3;;;;;;;7.35;65.6543;939.2003;;;;
2021/04/25 02:34:36;;;;;;;1.3;1;;;;;;;7.35;67.20703;939.1827;;;;
2021/04/25 02:37:02;;;;;;;1.7;1;;;;;;;7.31;67.74512;939.1161;;;;
2021/04/25 02:39:31;;;;;;;1.7;1.3;;;;;;;7.33;67.41992;939.2252;;;;
2021/04/25 02:42:01;;;;;;;1.5;1.2;;;;;;;7.3;67.5625;939.2181;;;;
2021/04/25 02:44:26;;;;;;;9.1;1.7;;;;;;;7.11;67.39844;939.2776;;;;
2021/04/25 02:46:53;;;;;;;1.6;1.1;;;;;;;7.24;66.71387;939.2626;;;;
2021/04/25 02:49:18;;;;;;;2.2;1.1;;;;;;;7.2;66.96875;939.3091;;;;
2021/04/25 02:51:44;;;;;;;1;0.7;;;;;;;6.91;67.78418;939.2305;;;;
2021/04/25 02:54:08;;;;;;;2.5;1.3;;;;;;;6.83;67.85059;939.2205;;;;
2021/04/25 02:56:35;;;;;;;3.7;0.8;;;;;;;6.97;67.41895;939.2819;;;;
2021/04/25 02:59:00;;;;;;;1.6;0.9;;;;;;;7.08;67.19824;939.3139;;;;
2021/04/25 03:01:27;;;;;;;1.1;0.9;;;;;;;7.12;66.95605;939.2755;;;;
2021/04/25 03:03:52;;;;;;;7.4;1.4;;;;;;;7.17;68.25684;939.2615;;;;
2021/04/25 03:06:21;;;;;;;1.1;0.9;;;;;;;7.2;68.03223;939.2495;;;;
2021/04/25 03:08:46;;;;;;;1.7;1.3;;;;;;;7.17;67.62207;939.1705;;;;
2021/04/25 03:11:12;;;;;;;2.5;1;;;;;;;7.18;67.63281;939.1959;;;;
2021/04/25 03:13:43;;;;;;;8.6;1;;;;;;;7.14;67.23242;939.0566;;;;
2021/04/25 03:16:26;;;;;;;1.4;1.1;;;;;;;7.01;67.22266;939.1223;;;;
2021/04/25 03:18:57;;;;;;;2.3;1.4;;;;;;;6.88;67.74512;939.1892;;;;
2021/04/25 03:21:28;;;;;;;1.8;0.9;;;;;;;6.84;68.02246;939.114;;;;
2021/04/25 03:23:56;;;;;;;2.6;1.1;;;;;;;6.85;68.23828;939.1958;;;;
2021/04/25 03:26:21;;;;;;;8.3;1;;;;;;;6.73;68.86523;939.1506;;;;
2021/04/25 03:28:50;;;;;;;2.2;1.3;;;;;;;6.6;69.63477;939.2031;;;;
2021/04/25 03:31:15;;;;;;;2;1.3;;;;;;;6.69;69.42383;939.1479;;;;
2021/04/25 03:33:42;;;;;;;1.4;1.1;;;;;;;6.77;69.51563;939.1895;;;;
2021/04/25 03:36:08;;;;;;;2.6;1.4;;;;;;;6.88;68.96777;939.194;;;;
2021/04/25 03:38:35;;;;;;;2.7;1.4;;;;;;;6.92;68.76953;939.1736;;;;
2021/04/25 03:41:00;;;;;;;1.1;0.9;;;;;;;6.96;68.60645;939.2349;;;;
2021/04/25 03:43:28;;;;;;;1.7;1.2;;;;;;;6.96;68.33691;939.1976;;;;
2021/04/25 03:45:53;;;;;;;2.3;1.1;;;;;;;6.93;68.2627;939.1827;;;;
2021/04/25 03:48:21;;;;;;;1.8;1.1;;;;;;;6.95;68.01758;939.2283;;;;
2021/04/25 03:50:46;;;;;;;3.6;1.4;;;;;;;6.99;68.18262;939.2499;;;;
2021/04/25 03:53:13;;;;;;;1.2;1;;;;;;;7.05;67.92871;939.223;;;;
2021/04/25 03:55:38;;;;;;;1.1;0.9;;;;;;;6.99;67.50293;939.2023;;;;
2021/04/25 03:58:06;;;;;;;3.7;1.4;;;;;;;6.97;67.75879;939.2184;;;;
2021/04/25 04:02:35;;;;;;;1.6;1.1;;;;;;;7.1;67.28027;939.2424;;;;
2021/04/25 04:05:00;;;;;;;1.5;0.9;;;;;;;7.16;67.24707;939.2717;;;;
2021/04/25 04:07:28;;;;;;;0.8;0.7;;;;;;;7.21;67.01563;939.2367;;;;
2021/04/25 04:09:53;;;;;;;1.9;0.9;;;;;;;7.24;67.05566;939.2397;;;;
2021/04/25 04:12:22;;;;;;;1.5;1;;;;;;;7.22;66.8584;939.2067;;;;
2021/04/25 04:14:48;;;;;;;25.7;11.9;;;;;;;7.23;66.80469;939.12;;;;
2021/04/25 04:17:27;;;;;;;43.4;19.6;;;;;;;7.21;67.19727;939.2343;;;;
2021/04/25 04:19:58;;;;;;;23.1;11.4;;;;;;;7.18;67.40625;939.2427;;;;
2021/04/25 04:22:23;;;;;;;21;10.8;;;;;;;7.19;67.64746;939.2058;;;;
2021/04/25 04:24:53;;;;;;;2.1;1.6;;;;;;;7.06;67.80859;939.2946;;;;
2021/04/25 04:27:21;;;;;;;1.5;1.2;;;;;;;7;68.00293;939.2874;;;;
2021/04/25 04:29:52;;;;;;;1.1;1;;;;;;;6.92;68.1709;939.2972;;;;
2021/04/25 04:32:21;;;;;;;1.8;1;;;;;;;6.93;68.25195;939.3347;;;;
2021/04/25 04:34:46;;;;;;;1.4;1.1;;;;;;;7.05;68.03223;939.3102;;;;
2021/04/25 04:37:15;;;;;;;5;1.1;;;;;;;7.02;68.08496;939.3205;;;;
2021/04/25 04:39:40;;;;;;;1.4;1;;;;;;;7.07;67.94434;939.3272;;;;
2021/04/25 04:42:10;;;;;;;1.4;0.8;;;;;;;7.23;68.76172;939.3154;;;;
2021/04/25 04:44:35;;;;;;;1.6;1.1;;;;;;;7.35;68.51074;939.3253;;;;
2021/04/25 04:47:00;;;;;;;1.5;1;;;;;;;7.4;68.76855;939.2892;;;;
2021/04/25 04:49:25;;;;;;;7.3;1.5;;;;;;;7.41;68.86035;939.3073;;;;
2021/04/25 04:51:51;;;;;;;2.1;1.1;;;;;;;7.54;67.92969;939.3118;;;;
2021/04/25 04:54:16;;;;;;;2.7;1;;;;;;;7.7;66.79883;939.1714;;;;
2021/04/25 04:56:42;;;;;;;2.8;1.2;;;;;;;7.84;66.3418;939.2547;;;;
2021/04/25 04:59:07;;;;;;;0.7;0.7;;;;;;;7.97;66.30566;939.2519;;;;
2021/04/25 05:01:35;;;;;;;1.4;1;;;;;;;8.15;65.87793;939.3334;;;;
2021/04/25 05:04:00;;;;;;;1.4;1;;;;;;;8.09;66.15527;939.3134;;;;
2021/04/25 05:06:25;;;;;;;1.2;0.9;;;;;;;8.12;67.91797;939.3614;;;;
2021/04/25 05:08:50;;;;;;;2.1;0.9;;;;;;;8.31;67.25488;939.3345;;;;
2021/04/25 05:11:20;;;;;;;2.2;1.1;;;;;;;8.47;66.89355;939.3945;;;;
2021/04/25 05:13:49;;;;;;;1.1;1;;;;;;;8.51;66.05957;939.4445;;;;
2021/04/25 05:16:24;;;;;;;3.1;1.4;;;;;;;8.78;65.15723;939.449;;;;
2021/04/25 05:18:49;;;;;;;1.8;1.1;;;;;;;9.08;63.96191;939.4451;;;;
2021/04/25 05:21:17;;;;;;;2.8;1.7;;;;;;;9.07;65.16699;939.4943;;;;
2021/04/25 05:23:49;;;;;;;2;1.4;;;;;;;9.13;65.39258;939.5136;;;;
2021/04/25 05:26:14;;;;;;;2.4;1.7;;;;;;;9.22;64.65527;939.4828;;;;
2021/04/25 05:28:45;;;;;;;2.9;1.7;;;;;;;9.29;64.47168;939.4522;;;;
2021/04/25 05:31:10;;;;;;;2.6;1.5;;;;;;;9.5;64.17285;939.5097;;;;
2021/04/25 05:33:40;;;;;;;1.5;1.3;;;;;;;9.74;62.76074;939.539;;;;
2021/04/25 05:36:05;;;;;;;2.2;1.6;;;;;;;9.52;62.55762;939.5545;;;;
2021/04/25 05:38:31;;;;;;;3.6;1.9;;;;;;;9.44;62.02246;939.5469;;;;
2021/04/25 05:40:56;;;;;;;2.6;1.8;;;;;;;9.35;63.85449;939.6089;;;;
2021/04/25 05:43:25;;;;;;;2.6;1.6;;;;;;;9.67;62.52246;939.6191;;;;
2021/04/25 05:45:51;;;;;;;2.2;1.6;;;;;;;9.74;62.5332;939.5064;;;;
2021/04/25 05:48:18;;;;;;;2.3;1.5;;;;;;;10.21;61.7334;939.5923;;;;
2021/04/25 05:50:43;;;;;;;3.6;1.5;;;;;;;11.29;58.51465;939.5053;;;;
2021/04/25 05:53:09;;;;;;;2.1;1.1;;;;;;;11.9;54.93262;939.566;;;;
2021/04/25 05:55:34;;;;;;;1.9;1.4;;;;;;;12.58;53.84766;939.5471;;;;
2021/04/25 05:58:02;;;;;;;2.8;1.7;;;;;;;13.11;51.44336;939.567;;;;
2021/04/25 06:00:28;;;;;;;1.3;1;;;;;;;13.32;48.97559;939.5655;;;;
2021/04/25 06:02:53;;;;;;;1.2;0.8;;;;;;;13.25;49.48438;939.5773;;;;
2021/04/25 06:05:18;;;;;;;2.6;1.4;;;;;;;13.18;49.79785;939.6114;;;;
2021/04/25 06:07:56;;;;;;;3;1.3;;;;;;;13.1;49.61719;939.6821;;;;
2021/04/25 06:10:31;;;;;;;1.9;1.3;;;;;;;12.39;49.15723;939.5676;;;;
2021/04/25 06:13:06;;;;;;;3.4;1.9;;;;;;;11.74;51.30371;939.6481;;;;
2021/04/25 06:15:36;;;;;;;2.9;1.8;;;;;;;11.93;51.64844;939.6125;;;;
2021/04/25 06:18:03;;;;;;;2.4;1.6;;;;;;;11.73;52.75781;939.6345;;;;
2021/04/25 06:20:27;;;;;;;3.1;2.1;;;;;;;11.96;53.54199;939.706;;;;
2021/04/25 06:22:52;;;;;;;2.8;1.4;;;;;;;12.1;52.84863;939.7184;;;;
2021/04/25 06:25:17;;;;;;;2.4;1.2;;;;;;;12.72;51.2832;939.6829;;;;
2021/04/25 06:27:43;;;;;;;2.3;1.5;;;;;;;12.39;49.76367;939.7816;;;;
2021/04/25 06:30:09;;;;;;;2.4;1.5;;;;;;;11.84;51.03027;939.7571;;;;
2021/04/25 06:32:34;;;;;;;1.6;1.1;;;;;;;11.96;50.87207;939.8265;;;;
2021/04/25 06:34:59;;;;;;;1.6;1.2;;;;;;;11.94;52.06055;939.8455;;;;
2021/04/25 06:37:27;;;;;;;1.5;1;;;;;;;11.86;50.4375;939.8267;;;;
2021/04/25 06:39:53;;;;;;;2.9;1.1;;;;;;;12.37;49.38379;939.8103;;;;
2021/04/25 06:42:20;;;;;;;2.2;1.1;;;;;;;12.79;48.43359;939.7982;;;;
2021/04/25 06:44:45;;;;;;;0.9;0.8;;;;;;;12.31;49.90527;939.8579;;;;
2021/04/25 06:47:12;;;;;;;11.9;1.5;;;;;;;12.6;49.19141;939.8691;;;;
2021/04/25 06:49:37;;;;;;;2;0.9;;;;;;;12.9;48.87012;939.8052;;;;
2021/04/25 06:52:03;;;;;;;1.5;1.2;;;;;;;13.33;48.58594;939.9278;;;;
2021/04/25 06:54:28;;;;;;;3.5;1.2;;;;;;;13.88;46.08008;939.9265;;;;
2021/04/25 06:56:55;;;;;;;4.7;1.3;;;;;;;14.44;44.92969;939.9155;;;;
2021/04/25 06:59:20;;;;;;;1.5;1.1;;;;;;;16.05;43.0957;939.9617;;;;
2021/04/25 07:01:48;;;;;;;1.2;0.5;;;;;;;16.69;41.68848;939.9427;;;;
2021/04/25 07:04:13;;;;;;;2.4;0.7;;;;;;;17.23;40.08105;939.9506;;;;
2021/04/25 07:06:38;;;;;;;0.8;0.7;;;;;;;18.59;36.94922;939.954;;;;
2021/04/25 07:09:03;;;;;;;1.1;0.6;;;;;;;20.91;34.4541;939.8805;;;;
2021/04/25 07:11:32;;;;;;;3.2;1.4;;;;;;;21.55;30.30078;939.8865;;;;
2021/04/25 07:13:57;;;;;;;1;0.7;;;;;;;21.22;31.16797;939.9012;;;;
2021/04/25 07:16:24;;;;;;;1.2;0.9;;;;;;;20.09;32.02148;939.9684;;;;
2021/04/25 07:18:57;;;;;;;2.1;1.1;;;;;;;19.35;33.7041;940.0161;;;;
2021/04/25 07:21:23;;;;;;;1.8;1;;;;;;;19.18;34.09863;939.9622;;;;
2021/04/25 07:23:48;;;;;;;1.3;0.9;;;;;;;18.97;34.39648;939.9581;;;;
2021/04/25 07:26:14;;;;;;;2.5;1.5;;;;;;;19.78;32.36133;939.943;;;;
2021/04/25 07:28:39;;;;;;;1.4;1.1;;;;;;;19.86;32.32031;939.9161;;;;
2021/04/25 07:31:10;;;;;;;2.5;1.5;;;;;;;20.31;31.74609;939.9031;;;;
2021/04/25 07:33:40;;;;;;;2.5;1.7;;;;;;;21.81;29.00684;939.8374;;;;
2021/04/25 07:36:08;;;;;;;2.7;1.5;;;;;;;23.31;27.40137;939.8911;;;;
2021/04/25 07:38:30;;;;;;;3.8;1.2;;;;;;;23.73;26.61426;939.8378;;;;
2021/04/25 07:40:59;;;;;;;1.4;1.2;;;;;;;23.99;26.38281;939.7978;;;;
2021/04/25 07:43:24;;;;;;;3;1.3;;;;;;;24.4;25.05176;939.7763;;;;
2021/04/25 07:45:51;;;;;;;3;1.3;;;;;;;25.4;23.85645;939.7067;;;;
2021/04/25 07:48:16;;;;;;;3.1;1.3;;;;;;;25.25;23.93066;939.7485;;;;
2021/04/25 07:50:44;;;;;;;3.6;0.9;;;;;;;26.14;22.7832;939.6971;;;;
2021/04/25 07:53:08;;;;;;;1.5;1.2;;;;;;;25.51;23.60254;939.7134;;;;
2021/04/25 07:55:35;;;;;;;2.2;1.3;;;;;;;24.36;24.50781;939.7552;;;;
2021/04/25 07:57:59;;;;;;;1.7;1.2;;;;;;;24.93;24.95117;939.752;;;;
2021/04/25 08:00:24;;;;;;;3.6;1.4;;;;;;;24.41;25.48828;939.7092;;;;
2021/04/25 08:02:49;;;;;;;2.4;1.3;;;;;;;24.75;25.04785;939.7172;;;;
2021/04/25 08:05:15;;;;;;;3.1;1;;;;;;;25.94;23.13965;939.7358;;;;
2021/04/25 08:07:40;;;;;;;2.6;1.6;;;;;;;26.31;22.70898;939.639;;;;
2021/04/25 08:10:38;;;;;;;1.4;1.1;;;;;;;26.73;22.79004;939.6844;;;;
2021/04/25 08:12:51;;;;;;;2.1;1.4;;;;;;;26.36;22.45117;939.6858;;;;
2021/04/25 08:15:24;;;;;;;3.6;1.4;;;;;;;26.1;22.11914;939.6998;;;;
2021/04/25 08:17:47;;;;;;;2.7;1.6;;;;;;;26.87;21.64746;939.6567;;;;
2021/04/25 08:20:13;;;;;;;1.7;1.3;;;;;;;25.8;23.08594;939.6627;;;;
2021/04/25 08:22:38;;;;;;;3.8;1.2;;;;;;;24.84;23.96777;939.5857;;;;
2021/04/25 08:25:03;;;;;;;1.1;0.9;;;;;;;24.81;25.0166;939.5842;;;;
2021/04/25 08:27:28;;;;;;;1.4;1;;;;;;;23.42;26.49023;939.6019;;;;
2021/04/25 08:29:53;;;;;;;2.2;1.3;;;;;;;22.12;28.80371;939.5834;;;;
2021/04/25 08:32:21;;;;;;;3.5;1.7;;;;;;;21.06;31.37891;939.4966;;;;
2021/04/25 08:34:46;;;;;;;4.4;1.5;;;;;;;19.86;33.27637;939.5572;;;;
2021/04/25 08:37:11;;;;;;;3;1.4;;;;;;;19.6;34.49219;939.5589;;;;
2021/04/25 08:39:37;;;;;;;2;1.4;;;;;;;20.17;31.88672;939.5153;;;;
2021/04/25 08:42:02;;;;;;;3.9;1.6;;;;;;;21.81;30.72852;939.5011;;;;
2021/04/25 08:44:29;;;;;;;2.1;1.1;;;;;;;23.29;26.76367;939.4899;;;;
2021/04/25 08:46:54;;;;;;;3;1.4;;;;;;;23.69;27.09473;939.5036;;;;
2021/04/25 08:49:20;;;;;;;2.5;1.5;;;;;;;24.77;26.5;939.402;;;;
2021/04/25 08:51:45;;;;;;;2.2;1.5;;;;;;;24.88;25.78613;939.378;;;;
2021/04/25 08:54:12;;;;;;;3.1;1.7;;;;;;;25.35;24.45605;939.3558;;;;
2021/04/25 08:56:36;;;;;;;2.7;1.3;;;;;;;26.05;23.22852;939.3809;;;;
2021/04/25 08:59:02;;;;;;;1.5;1.4;;;;;;;25.48;24.49805;939.3738;;;;
2021/04/25 09:01:27;;;;;;;4.2;1.6;;;;;;;26.39;22.44141;939.4001;;;;
2021/04/25 09:03:54;;;;;;;2.1;1.7;;;;;;;24.02;26.11426;939.3613;;;;
2021/04/25 09:06:19;;;;;;;2.2;1.3;;;;;;;23.82;27.05469;939.2391;;;;
2021/04/25 09:08:44;;;;;;;2.7;1.4;;;;;;;23.71;27.20117;939.2514;;;;
2021/04/25 09:11:11;;;;;;;7.1;1.1;;;;;;;23.29;26.44727;939.2338;;;;
2021/04/25 09:13:36;;;;;;;5.1;1.4;;;;;;;23.45;27.46777;939.2344;;;;
2021/04/25 09:16:07;;;;;;;2.1;1.5;;;;;;;23.67;26.12891;939.2092;;;;
2021/04/25 09:18:32;;;;;;;2.2;1.7;;;;;;;23.64;26.30273;939.1836;;;;
2021/04/25 09:20:57;;;;;;;2.8;1.5;;;;;;;23.57;26.31055;939.2366;;;;
2021/04/25 09:23:24;;;;;;;6.5;2.7;;;;;;;22.17;27.70508;939.1834;;;;
2021/04/25 09:25:48;;;;;;;1.4;1.3;;;;;;;21.6;28.6416;939.1628;;;;
2021/04/25 09:28:13;;;;;;;13.3;1.8;;;;;;;22.09;28.04102;939.1869;;;;
2021/04/25 09:30:38;;;;;;;2;1.6;;;;;;;22.07;28.51953;939.002;;;;
2021/04/25 09:33:05;;;;;;;3.7;1.9;;;;;;;21.97;29.73242;939.1602;;;;
2021/04/25 09:35:30;;;;;;;4.9;1.8;;;;;;;21.7;29.13965;939.1277;;;;
2021/04/25 09:37:55;;;;;;;5.2;1.8;;;;;;;21.84;29.09082;939.0918;;;;
2021/04/25 09:40:21;;;;;;;3.5;1.8;;;;;;;21.27;29.93066;939.0804;;;;
2021/04/25 09:42:45;;;;;;;3.1;1.5;;;;;;;20.49;32.45996;938.9236;;;;
2021/04/25 09:45:11;;;;;;;4.1;1.8;;;;;;;20.45;31.7334;938.9707;;;;
2021/04/25 09:47:36;;;;;;;2;1.6;;;;;;;20.74;30.32813;939.0259;;;;
2021/04/25 09:50:02;;;;;;;2.8;1.9;;;;;;;20.36;30.66309;938.9524;;;;
2021/04/25 09:52:31;;;;;;;2.2;1.8;;;;;;;20.24;31.00586;938.8862;;;;
2021/04/25 09:54:56;;;;;;;5.8;1.8;;;;;;;19.51;31.29199;939.0081;;;;
2021/04/25 09:57:25;;;;;;;4.3;2.1;;;;;;;19.93;31.73047;939.0036;;;;
2021/04/25 09:59:51;;;;;;;4;2.4;;;;;;;20.37;30.96777;938.8865;;;;
2021/04/25 10:02:15;;;;;;;3.1;1.6;;;;;;;20.76;30.75;939.0027;;;;
2021/04/25 10:04:41;;;;;;;3.3;1.5;;;;;;;20.35;29.99707;938.8937;;;;
2021/04/25 10:07:06;;;;;;;2.9;1.6;;;;;;;20.37;30.10352;938.9627;;;;
2021/04/25 10:09:31;;;;;;;3.3;2;;;;;;;20.43;30.21289;938.9203;;;;
2021/04/25 10:11:56;;;;;;;9.7;2.3;;;;;;;20.84;29.79688;938.9022;;;;
2021/04/25 10:14:21;;;;;;;2.8;1.6;;;;;;;20.88;28.7002;938.8532;;;;
2021/04/25 10:16:48;;;;;;;4;2;;;;;;;20.91;30.26855;938.824;;;;
2021/04/25 10:19:14;;;;;;;2.6;1.5;;;;;;;20.07;32.3584;938.6857;;;;
2021/04/25 10:21:39;;;;;;;2;1.7;;;;;;;20.31;30.73047;938.8033;;;;
2021/04/25 10:24:04;;;;;;;5.5;2.2;;;;;;;20.45;31.03125;938.7783;;;;
2021/04/25 10:26:29;;;;;;;2.6;2.1;;;;;;;20.94;29.3125;938.7589;;;;
2021/04/25 10:28:54;;;;;;;2.6;1.6;;;;;;;20.78;29.5127;938.7966;;;;
2021/04/25 10:31:20;;;;;;;4.9;2.2;;;;;;;21.24;29.46094;938.7477;;;;
2021/04/25 10:33:45;;;;;;;2;1.8;;;;;;;21.62;28.88867;938.7156;;;;
2021/04/25 10:36:10;;;;;;;4.6;2.3;;;;;;;21.45;30.02441;938.7229;;;;
2021/04/25 10:38:36;;;;;;;3.1;1.6;;;;;;;21.53;29.50391;938.7397;;;;
2021/04/25 10:41:14;;;;;;;5.6;2.1;;;;;;;21.66;28.16602;938.7583;;;;
2021/04/25 10:43:36;;;;;;;10.6;4.6;;;;;;;21.94;30.78516;938.6872;;;;
2021/04/25 10:46:01;;;;;;;2.8;1.7;;;;;;;22.04;31.34277;938.6727;;;;
2021/04/25 10:48:26;;;;;;;3.3;1.7;;;;;;;21.62;30.08301;938.6541;;;;
2021/04/25 10:50:51;;;;;;;2.8;1.4;;;;;;;21.73;30.96973;938.7408;;;;
2021/04/25 10:53:16;;;;;;;3.6;2;;;;;;;21.7;30.74512;938.7294;;;;
2021/04/25 10:55:43;;;;;;;4.2;2.3;;;;;;;21.6;30.17578;938.7271;;;;
2021/04/25 10:58:08;;;;;;;1.7;1.5;;;;;;;21.4;30.91113;938.618;;;;
2021/04/25 11:00:34;;;;;;;5;2.2;;;;;;;21.26;31.62695;938.6848;;;;
2021/04/25 11:02:58;;;;;;;5.7;2.1;;;;;;;21.76;28.93262;938.6937;;;;
2021/04/25 11:05:24;;;;;;;5.3;1.5;;;;;;;22.11;28.55762;938.7222;;;;
2021/04/25 11:07:50;;;;;;;3.5;1.7;;;;;;;22.5;28.89941;938.7392;;;;
2021/04/25 11:10:20;;;;;;;3.5;1.9;;;;;;;22.82;29.07324;938.7249;;;;
2021/04/25 11:12:42;;;;;;;4;1.7;;;;;;;22.22;29.62012;938.657;;;;
2021/04/25 11:15:07;;;;;;;3.2;1.4;;;;;;;21.37;32.02051;938.7225;;;;
2021/04/25 11:17:32;;;;;;;2.7;1.4;;;;;;;21.55;30.59473;938.7916;;;;
2021/04/25 11:19:57;;;;;;;2.5;1.6;;;;;;;22.34;28.52539;938.8008;;;;
2021/04/25 11:22:22;;;;;;;3.6;2;;;;;;;21.92;30.39648;938.7842;;;;
2021/04/25 11:24:48;;;;;;;4.5;2.8;;;;;;;21.78;29.61328;938.8016;;;;
2021/04/25 11:27:13;;;;;;;5.8;1.8;;;;;;;21.54;31.66992;938.7352;;;;
2021/04/25 11:29:38;;;;;;;2.9;1.2;;;;;;;21.07;31.19336;938.7756;;;;
2021/04/25 11:32:03;;;;;;;2.8;1.6;;;;;;;21.04;31.36523;938.6973;;;;
2021/04/25 11:34:30;;;;;;;1.3;1.2;;;;;;;21.02;32.13672;938.7421;;;;
2021/04/25 11:36:55;;;;;;;4.4;1.3;;;;;;;21.06;30.99219;938.7802;;;;
2021/04/25 11:39:22;;;;;;;3.7;1.6;;;;;;;20.98;31.81738;938.668;;;;
2021/04/25 11:41:47;;;;;;;3.7;2.1;;;;;;;20.63;32.25977;938.7734;;;;
2021/04/25 11:44:13;;;;;;;2.2;1.7;;;;;;;20.62;32.73828;938.738;;;;
2021/04/25 11:46:38;;;;;;;4.6;2.1;;;;;;;20.15;32.80859;938.7742;;;;
2021/04/25 11:49:04;;;;;;;3.4;1.7;;;;;;;19.87;33.75586;938.7756;;;;
2021/04/25 11:51:29;;;;;;;2.6;1.6;;;;;;;19.65;34.57813;938.8318;;;;
2021/04/25 11:53:54;;;;;;;1.7;1.5;;;;;;;19.89;34.94629;938.8283;;;;
2021/04/25 11:56:22;;;;;;;5;1.8;;;;;;;19.83;33.60156;938.7434;;;;
2021/04/25 11:58:47;;;;;;;2.7;1.6;;;;;;;19.77;33.99219;938.7698;;;;
2021/04/25 12:01:15;;;;;;;2;1.5;;;;;;;19.57;34.33887;938.6871;;;;
2021/04/25 12:03:41;;;;;;;1.3;1.1;;;;;;;19.44;35.62305;938.74;;;;
2021/04/25 12:06:06;;;;;;;2.1;1.6;;;;;;;19.23;35.29004;938.8078;;;;
2021/04/25 12:08:31;;;;;;;2.2;1.8;;;;;;;19.44;35.36621;938.7505;;;;
2021/04/25 12:10:56;;;;;;;3.7;1.8;;;;;;;19.78;34.54199;938.7162;;;;
2021/04/25 12:13:26;;;;;;;1.8;1.4;;;;;;;19.79;34.16895;938.66;;;;
2021/04/25 12:15:50;;;;;;;2;1.8;;;;;;;19.46;35.37891;938.6208;;;;
2021/04/25 12:18:16;;;;;;;2.8;1.6;;;;;;;19.35;37.81641;938.7064;;;;
2021/04/25 12:20:41;;;;;;;6.2;2.1;;;;;;;19.34;37.4082;938.6317;;;;
2021/04/25 12:23:06;;;;;;;1.6;1.5;;;;;;;19.4;35.09473;938.6987;;;;
2021/04/25 12:25:31;;;;;;;2.2;1.6;;;;;;;19.19;35.01953;938.6484;;;;
2021/04/25 12:27:59;;;;;;;3.6;1.5;;;;;;;18.96;35.95605;938.6097;;;;
2021/04/25 12:30:25;;;;;;;3.8;1.8;;;;;;;18.85;36.55176;938.6235;;;;
2021/04/25 12:32:49;;;;;;;1.4;1;;;;;;;18.87;37.91406;938.6522;;;;
2021/04/25 12:35:14;;;;;;;1.7;1.6;;;;;;;19.2;35.54492;938.6731;;;;
2021/04/25 12:37:41;;;;;;;1.6;1.3;;;;;;;19.25;35.31641;938.6303;;;;
2021/04/25 12:40:09;;;;;;;3.8;1.7;;;;;;;19.12;35.74805;938.5659;;;;
2021/04/25 12:42:34;;;;;;;3.9;2.2;;;;;;;19.18;36.13672;938.5494;;;;
2021/04/25 12:44:59;;;;;;;1.8;1.2;;;;;;;19.18;35.28711;938.5259;;;;
2021/04/25 12:47:24;;;;;;;1.5;1.2;;;;;;;19.42;36.63379;938.4594;;;;
2021/04/25 12:49:49;;;;;;;1.4;1;;;;;;;18.93;36.86133;938.4474;;;;
2021/04/25 12:52:15;;;;;;;2.8;1.7;;;;;;;19.05;35.67188;938.5684;;;;
2021/04/25 12:54:40;;;;;;;4.3;2.1;;;;;;;18.85;36.84277;938.6033;;;;
2021/04/25 12:57:07;;;;;;;3.3;1.6;;;;;;;18.95;37.29395;938.5527;;;;
2021/04/25 12:59:34;;;;;;;3.9;1.6;;;;;;;18.88;35.90332;938.6535;;;;
2021/04/25 13:01:58;;;;;;;1.2;1.1;;;;;;;18.8;37.19922;938.6155;;;;
2021/04/25 13:04:23;;;;;;;2.7;1.5;;;;;;;18.48;37.6377;938.6158;;;;
2021/04/25 13:06:49;;;;;;;2;1.6;;;;;;;18.29;38.27246;938.5558;;;;
2021/04/25 13:09:15;;;;;;;2.3;2;;;;;;;18.29;39.41113;938.5622;;;;
2021/04/25 13:11:40;;;;;;;3.7;1.4;;;;;;;18.34;39.00879;938.5613;;;;
2021/04/25 13:14:06;;;;;;;2;1.4;;;;;;;18.24;38.09375;938.5405;;;;
2021/04/25 13:16:31;;;;;;;4;1.7;;;;;;;18.53;37.32813;938.4381;;;;
2021/04/25 13:18:56;;;;;;;2.2;1.4;;;;;;;18.55;37.94629;938.4879;;;;
2021/04/25 13:21:21;;;;;;;3.5;1.5;;;;;;;18.46;37.4502;938.5784;;;;
2021/04/25 13:23:46;;;;;;;4.8;2;;;;;;;18.05;38.00684;938.5101;;;;
2021/04/25 13:26:11;;;;;;;1.8;1.5;;;;;;;17.95;39.70605;938.49;;;;
2021/04/25 13:28:37;;;;;;;2;1.4;;;;;;;18;39.83789;938.4963;;;;
2021/04/25 13:31:02;;;;;;;3.1;1.7;;;;;;;18.14;38.71289;938.5019;;;;
2021/04/25 13:33:29;;;;;;;4.1;1.7;;;;;;;17.82;38.96289;938.4961;;;;
2021/04/25 13:35:54;;;;;;;2.1;1.7;;;;;;;17.92;38.85547;938.4333;;;;
2021/04/25 13:38:19;;;;;;;1.7;1.4;;;;;;;17.96;38.2207;938.4769;;;;
2021/04/25 13:40:45;;;;;;;1.9;1.5;;;;;;;17.55;40.65625;938.5719;;;;
2021/04/25 13:43:10;;;;;;;10.1;1.8;;;;;;;17.63;38.64453;938.4492;;;;
2021/04/25 13:45:35;;;;;;;2.1;1.4;;;;;;;18.16;37.99316;938.5105;;;;
2021/04/25 13:48:00;;;;;;;1.9;1.4;;;;;;;18.45;37.05371;938.5173;;;;
2021/04/25 13:50:27;;;;;;;2;1.6;;;;;;;18.26;38.31543;938.4467;;;;
2021/04/25 13:52:53;;;;;;;3;1.9;;;;;;;17.97;39.56836;938.5734;;;;
2021/04/25 13:55:17;;;;;;;3.3;1.6;;;;;;;17.91;39.01758;938.6027;;;;
2021/04/25 13:57:43;;;;;;;6.3;2;;;;;;;17.56;40.01855;938.5492;;;;
2021/04/25 14:00:08;;;;;;;4.1;1.7;;;;;;;17.66;39.55273;938.4462;;;;
2021/04/25 14:02:34;;;;;;;1.9;1.2;;;;;;;17.38;42.7627;938.4424;;;;
2021/04/25 14:04:59;;;;;;;2.7;1.6;;;;;;;17.1;40.91602;938.3861;;;;
2021/04/25 14:07:25;;;;;;;4.8;2;;;;;;;17.04;40.48145;938.3911;;;;
2021/04/25 14:09:51;;;;;;;2.6;1.5;;;;;;;17.19;42.89453;938.4572;;;;
2021/04/25 14:12:16;;;;;;;2.7;1.6;;;;;;;17.26;40.65234;938.3792;;;;
2021/04/25 14:14:41;;;;;;;2.8;1.5;;;;;;;16.98;42.46875;938.4127;;;;
2021/04/25 14:17:06;;;;;;;2;1.3;;;;;;;16.68;41.50195;938.3957;;;;
2021/04/25 14:19:31;;;;;;;2.2;1.4;;;;;;;16.38;43.15234;938.4277;;;;
2021/04/25 14:21:59;;;;;;;7.5;2.3;;;;;;;16.33;42.35938;938.4171;;;;
2021/04/25 14:24:24;;;;;;;3.1;1.9;;;;;;;16.43;43.11035;938.4194;;;;
2021/04/25 14:26:50;;;;;;;2.1;1.6;;;;;;;16.39;43.73145;938.3842;;;;
2021/04/25 14:29:15;;;;;;;2.7;2;;;;;;;16.15;43.64941;938.4471;;;;